Time;durP1;ratioP1;P1;durP2;ratioP2;P2;SDS_P1;SDS_P2;PMS_P1;PMS_P2;Temp;Humidity;BMP_temperature;BMP_pressure;BME280_temperature;BME280_humidity;BME280_pressure;Samples;Min_cycle;Max_cycle;Signal;HPM_P1;HPM_P2
2023/07/23 00:01:25;;;;;;;5.07;2.50;;;;;;;15.75;88.87;100934.56;4997888;28;97253;-27
2023/07/23 00:03:51;;;;;;;4.13;1.98;;;;;;;15.76;89.45;100943.66;4998343;28;96487;-27
2023/07/23 00:06:17;;;;;;;4.95;2.08;;;;;;;15.76;90.22;100938.19;4997959;28;96784;-29
2023/07/23 00:08:42;;;;;;;4.53;2.67;;;;;;;15.72;89.51;100926.63;4996054;28;101040;-27
2023/07/23 00:11:07;;;;;;;4.45;2.25;;;;;;;15.76;89.14;100930.00;4997675;28;97547;-27
2023/07/23 00:13:33;;;;;;;5.28;2.13;;;;;;;15.79;89.61;100932.47;4996398;28;96729;-27
2023/07/23 00:15:58;;;;;;;7.07;2.40;;;;;;;15.77;89.40;100926.25;4997761;28;96612;-27
2023/07/23 00:18:24;;;;;;;7.00;2.65;;;;;;;15.82;89.01;100935.78;4997893;28;97454;-27
2023/07/23 00:20:49;;;;;;;6.38;2.78;;;;;;;15.75;89.11;100920.91;4997489;28;97686;-26
2023/07/23 00:23:14;;;;;;;5.25;2.60;;;;;;;15.78;89.00;100925.25;4997162;28;96519;-27
2023/07/23 00:25:40;;;;;;;4.93;2.53;;;;;;;15.76;89.50;100908.16;4996514;28;96810;-27
2023/07/23 00:28:06;;;;;;;4.57;2.67;;;;;;;15.78;89.63;100920.69;4997434;28;97982;-28
2023/07/23 00:30:32;;;;;;;5.53;2.72;;;;;;;15.83;89.20;100915.69;4997069;28;99127;-27
2023/07/23 00:32:57;;;;;;;4.80;2.25;;;;;;;15.81;89.24;100909.50;4997321;28;96472;-27
2023/07/23 00:35:23;;;;;;;6.15;2.55;;;;;;;15.86;89.08;100912.69;4997436;28;99416;-27
2023/07/23 00:37:48;;;;;;;4.55;2.35;;;;;;;15.86;89.06;100909.97;4997174;28;98077;-27
2023/07/23 00:40:14;;;;;;;5.63;2.40;;;;;;;15.88;89.05;100910.72;4997351;28;97901;-26
2023/07/23 00:42:39;;;;;;;7.70;3.08;;;;;;;15.82;89.79;100896.69;4997139;28;96506;-27
2023/07/23 00:45:05;;;;;;;7.03;2.80;;;;;;;15.83;89.77;100899.31;4997400;28;96775;-27
2023/07/23 00:47:31;;;;;;;5.88;2.58;;;;;;;15.89;89.43;100895.19;4996335;28;100443;-27
2023/07/23 00:49:56;;;;;;;4.30;2.47;;;;;;;15.85;89.32;100893.69;4995139;28;101167;-27
2023/07/23 00:52:22;;;;;;;4.72;2.47;;;;;;;15.84;89.36;100889.25;4996922;28;96820;-27
2023/07/23 00:54:47;;;;;;;3.55;2.25;;;;;;;15.85;89.52;100889.13;4996119;28;96817;-27
2023/07/23 00:57:13;;;;;;;5.43;2.33;;;;;;;15.89;90.37;100887.84;4996863;28;98000;-28
2023/07/23 00:59:38;;;;;;;6.53;2.70;;;;;;;15.83;89.43;100868.41;4996243;28;99198;-27
2023/07/23 01:02:04;;;;;;;4.88;2.40;;;;;;;15.85;90.11;100880.03;4997054;28;96513;-29
2023/07/23 01:04:32;;;;;;;5.53;2.60;;;;;;;15.87;89.03;100878.94;4995910;28;96850;-28
2023/07/23 01:07:02;;;;;;;6.00;2.55;;;;;;;15.85;89.57;100861.81;4994877;28;100828;-27
2023/07/23 01:09:28;;;;;;;4.57;2.25;;;;;;;15.83;90.22;100855.59;4995310;28;100801;-29
2023/07/23 01:11:55;;;;;;;5.90;2.30;;;;;;;15.86;90.16;100847.16;4995009;28;96838;-27
2023/07/23 01:14:21;;;;;;;4.82;2.45;;;;;;;15.89;89.78;100851.47;4995214;28;96845;-28
2023/07/23 01:16:47;;;;;;;5.72;2.60;;;;;;;15.93;88.85;100855.69;4995073;28;100592;-27
2023/07/23 01:19:14;;;;;;;5.53;2.28;;;;;;;15.91;89.32;100846.75;4996515;28;97464;-27
2023/07/23 01:21:39;;;;;;;4.82;2.45;;;;;;;15.88;89.73;100836.09;4996873;28;96658;-27
2023/07/23 01:24:05;;;;;;;6.47;2.90;;;;;;;15.91;89.06;100838.56;4996881;28;96723;-27
2023/07/23 01:26:30;;;;;;;4.40;2.25;;;;;;;15.88;89.01;100825.16;4996550;28;97980;-28
2023/07/23 01:28:56;;;;;;;3.75;2.22;;;;;;;15.89;89.61;100829.63;4995245;28;100611;-27
2023/07/23 01:31:21;;;;;;;5.55;2.75;;;;;;;15.88;89.29;100823.31;4996384;28;96538;-27
2023/07/23 01:33:47;;;;;;;6.05;2.25;;;;;;;15.87;88.70;100810.66;4996836;28;96840;-27
2023/07/23 01:36:14;;;;;;;4.90;2.30;;;;;;;15.88;88.93;100808.78;4993837;28;101345;-27
2023/07/23 01:38:39;;;;;;;3.72;1.65;;;;;;;15.93;89.56;100820.19;4995947;28;99407;-29
2023/07/23 01:41:05;;;;;;;3.97;2.20;;;;;;;15.94;88.50;100816.44;4996597;28;96750;-27
2023/07/23 01:43:30;;;;;;;3.40;1.77;;;;;;;15.90;89.22;100804.06;4996380;28;96700;-27
2023/07/23 01:45:56;;;;;;;3.92;2.20;;;;;;;15.94;89.18;100805.50;4996329;28;97590;-27
2023/07/23 01:48:22;;;;;;;5.07;1.83;;;;;;;15.95;88.96;100796.34;4995703;28;98363;-28
2023/07/23 01:50:48;;;;;;;5.32;2.45;;;;;;;15.95;88.62;100799.06;4994961;28;96605;-27
2023/07/23 01:53:13;;;;;;;4.53;2.28;;;;;;;15.93;89.00;100791.00;4996323;28;96922;-27
2023/07/23 01:55:39;;;;;;;4.35;2.20;;;;;;;15.97;89.25;100798.91;4996041;28;97952;-27
2023/07/23 01:58:04;;;;;;;6.75;2.40;;;;;;;15.91;88.88;100778.47;4995590;28;97808;-27
2023/07/23 02:00:29;;;;;;;6.85;2.17;;;;;;;15.89;89.61;100778.59;4995446;28;96538;-28
2023/07/23 02:02:55;;;;;;;4.60;2.25;;;;;;;15.93;89.22;100785.53;4995932;28;96767;-27
2023/07/23 02:05:23;;;;;;;5.60;2.60;;;;;;;15.91;88.76;100778.47;4995855;28;98015;-27
2023/07/23 02:07:48;;;;;;;3.42;1.95;;;;;;;15.89;89.41;100772.25;4994361;28;98908;-27
2023/07/23 02:10:14;;;;;;;7.00;2.17;;;;;;;15.89;89.05;100766.78;4996085;28;96898;-27
2023/07/23 02:12:40;;;;;;;4.00;2.03;;;;;;;15.92;88.94;100766.53;4994132;28;97599;-27
2023/07/23 02:15:06;;;;;;;4.95;2.22;;;;;;;15.88;89.27;100756.88;4995745;28;97257;-27
2023/07/23 02:17:31;;;;;;;5.95;2.30;;;;;;;15.93;88.71;100754.63;4995827;28;97763;-27
2023/07/23 02:19:57;;;;;;;4.70;2.40;;;;;;;15.96;88.59;100753.47;4995255;28;96522;-28
2023/07/23 02:22:22;;;;;;;3.63;1.98;;;;;;;15.92;88.65;100750.13;4995716;28;96864;-27
2023/07/23 02:24:47;;;;;;;3.03;2.00;;;;;;;15.93;89.06;100747.28;4995150;28;97642;-27
2023/07/23 02:27:14;;;;;;;3.80;2.03;;;;;;;15.96;88.59;100740.69;4995239;28;97326;-27
2023/07/23 02:29:40;;;;;;;4.75;2.08;;;;;;;15.95;88.21;100735.38;4994301;28;96711;-27
2023/07/23 02:32:06;;;;;;;5.55;2.17;;;;;;;15.88;88.49;100724.09;4995570;28;96882;-27
2023/07/23 02:34:32;;;;;;;6.10;2.70;;;;;;;15.88;88.47;100729.56;4993931;28;101488;-28
2023/07/23 02:36:57;;;;;;;4.18;1.80;;;;;;;15.91;88.90;100729.28;4995036;28;98031;-27
2023/07/23 02:39:22;;;;;;;7.57;2.55;;;;;;;15.89;89.97;100718.47;4995489;28;96675;-27
2023/07/23 02:41:48;;;;;;;4.80;2.28;;;;;;;15.90;88.66;100709.31;4995973;28;96768;-28
2023/07/23 02:44:13;;;;;;;5.97;2.33;;;;;;;15.95;88.76;100719.84;4995377;28;97479;-27
2023/07/23 02:46:39;;;;;;;4.00;2.17;;;;;;;15.97;88.52;100701.47;4995212;28;97800;-27
2023/07/23 02:49:05;;;;;;;5.07;2.42;;;;;;;15.96;88.26;100704.31;4992792;28;96799;-27
2023/07/23 02:51:30;;;;;;;4.13;2.33;;;;;;;15.97;88.96;100701.47;4993660;28;96965;-27
2023/07/23 02:53:56;;;;;;;4.43;2.17;;;;;;;15.97;88.05;100701.47;4994696;28;99825;-27
2023/07/23 02:56:21;;;;;;;4.07;1.90;;;;;;;15.91;88.17;100689.16;4995245;28;97328;-27
2023/07/23 02:58:46;;;;;;;6.30;2.47;;;;;;;15.96;87.95;100691.50;4995428;28;96576;-27
2023/07/23 03:01:12;;;;;;;5.28;2.50;;;;;;;15.94;87.95;100690.78;4994775;28;98008;-28
2023/07/23 03:03:37;;;;;;;5.30;2.33;;;;;;;15.93;87.70;100680.84;4995056;28;97917;-27
2023/07/23 03:06:06;;;;;;;3.70;1.77;;;;;;;15.98;87.52;100691.38;4995308;28;97318;-27
2023/07/23 03:08:31;;;;;;;8.20;2.05;;;;;;;15.92;88.23;100676.38;4993790;28;96772;-27
2023/07/23 03:10:57;;;;;;;6.78;2.05;;;;;;;15.91;87.69;100677.38;4995088;28;96783;-28
2023/07/23 03:13:22;;;;;;;5.75;2.22;;;;;;;15.92;87.76;100674.53;4994103;28;97544;-28
2023/07/23 03:15:48;;;;;;;4.50;2.13;;;;;;;15.87;88.63;100663.16;4995140;28;97254;-27
2023/07/23 03:18:13;;;;;;;5.13;2.45;;;;;;;15.85;87.79;100659.69;4995341;28;96475;-27
2023/07/23 03:20:38;;;;;;;5.50;2.38;;;;;;;15.91;88.39;100672.78;4995226;28;96850;-27
2023/07/23 03:23:04;;;;;;;6.70;2.38;;;;;;;15.90;87.98;100662.00;4994238;28;101287;-27
2023/07/23 03:25:29;;;;;;;5.38;2.15;;;;;;;15.86;87.54;100660.53;4994653;28;97767;-27
2023/07/23 03:27:59;;;;;;;5.70;2.38;;;;;;;15.87;87.60;100651.31;4994694;28;96641;-27
2023/07/23 03:30:25;;;;;;;3.60;1.90;;;;;;;15.91;87.81;100664.59;4993741;28;96706;-27
2023/07/23 03:32:50;;;;;;;3.88;2.20;;;;;;;15.93;87.51;100656.28;4993017;28;100900;-28
2023/07/23 03:35:15;;;;;;;3.03;1.83;;;;;;;15.86;87.88;100645.00;4994646;28;97316;-27
2023/07/23 03:37:41;;;;;;;5.15;2.72;;;;;;;15.90;87.61;100643.75;4994085;28;96497;-26
2023/07/23 03:40:07;;;;;;;3.90;2.00;;;;;;;15.88;87.64;100636.69;4994575;28;96812;-27
2023/07/23 03:42:32;;;;;;;5.53;2.17;;;;;;;15.90;87.48;100634.69;4994468;28;98039;-27
2023/07/23 03:44:57;;;;;;;5.88;2.47;;;;;;;15.88;87.91;100637.53;4994519;28;97758;-27
2023/07/23 03:47:23;;;;;;;3.40;1.88;;;;;;;15.90;88.07;100645.63;4994520;28;96541;-27
2023/07/23 03:49:48;;;;;;;4.15;2.17;;;;;;;15.87;87.63;100633.09;4994328;28;96798;-27
2023/07/23 03:52:14;;;;;;;4.75;2.38;;;;;;;15.93;87.60;100635.28;4993972;28;99663;-27
2023/07/23 03:54:40;;;;;;;4.20;2.10;;;;;;;15.95;87.79;100639.75;4993224;28;100121;-28
2023/07/23 03:57:06;;;;;;;4.70;2.03;;;;;;;15.98;87.71;100640.34;4994342;28;96598;-27
2023/07/23 03:59:40;;;;;;;4.22;1.88;;;;;;;15.93;87.04;100634.41;4993421;28;96726;-27
2023/07/23 04:02:06;;;;;;;2.78;1.67;;;;;;;15.99;87.03;100627.53;4992257;28;99523;-29
2023/07/23 04:04:32;;;;;;;6.28;2.05;;;;;;;16.03;87.01;100632.59;4976358;28;100708;-28
2023/07/23 04:06:58;;;;;;;4.80;1.88;;;;;;;16.04;86.99;100628.00;4993040;28;96666;-27
2023/07/23 04:09:23;;;;;;;3.75;2.00;;;;;;;16.04;86.84;100619.78;4994146;28;96826;-27
2023/07/23 04:11:49;;;;;;;5.32;2.30;;;;;;;16.05;86.59;100621.53;4994411;28;97087;-27
2023/07/23 04:14:14;;;;;;;5.13;1.92;;;;;;;16.06;86.79;100621.38;4993989;28;98831;-27
2023/07/23 04:16:39;;;;;;;4.45;2.00;;;;;;;16.09;86.81;100617.53;4994107;28;96553;-27
2023/07/23 04:19:05;;;;;;;2.83;1.50;;;;;;;16.11;87.09;100623.72;4994810;28;96530;-27
2023/07/23 04:21:30;;;;;;;3.22;1.70;;;;;;;16.10;86.79;100625.59;4993809;28;99214;-27
2023/07/23 04:23:57;;;;;;;3.00;1.67;;;;;;;16.13;86.99;100622.56;4993880;28;97811;-27
2023/07/23 04:26:23;;;;;;;7.28;2.03;;;;;;;16.13;86.70;100617.09;4993842;28;96683;-27
2023/07/23 04:28:49;;;;;;;3.65;1.80;;;;;;;16.20;86.50;100624.78;4992752;28;97211;-28
2023/07/23 04:31:15;;;;;;;5.13;2.55;;;;;;;16.20;86.27;100622.91;4993602;28;99571;-29
2023/07/23 04:33:40;;;;;;;4.28;1.98;;;;;;;16.22;86.30;100622.78;4993639;28;101679;-28
2023/07/23 04:36:09;;;;;;;5.03;2.47;;;;;;;16.18;86.72;100611.25;4994015;28;96682;-28
2023/07/23 04:38:35;;;;;;;4.18;2.00;;;;;;;16.23;86.72;100619.03;4993967;28;96852;-27
2023/07/23 04:41:00;;;;;;;5.60;1.88;;;;;;;16.23;86.65;100617.19;4992149;28;100952;-28
2023/07/23 04:43:25;;;;;;;4.97;2.05;;;;;;;16.23;86.98;100624.50;4997326;28;97689;-27
2023/07/23 04:45:51;;;;;;;4.35;2.28;;;;;;;16.25;86.95;100620.63;4997582;28;96570;-27
2023/07/23 04:48:16;;;;;;;3.38;1.88;;;;;;;16.25;87.14;100617.03;4997243;28;96933;-27
2023/07/23 04:50:42;;;;;;;5.78;2.03;;;;;;;16.20;87.54;100622.91;4996134;28;101371;-27
2023/07/23 04:53:08;;;;;;;4.38;2.08;;;;;;;16.26;87.28;100625.09;4994875;28;99191;-26
2023/07/23 04:55:34;;;;;;;5.45;2.30;;;;;;;16.25;86.93;100622.50;4997373;28;96538;-27
2023/07/23 04:58:00;;;;;;;3.80;1.77;;;;;;;16.19;87.84;100620.31;4995613;28;96881;-26
2023/07/23 05:00:26;;;;;;;4.72;1.90;;;;;;;16.21;88.17;100621.03;4996984;28;97772;-27
2023/07/23 05:02:51;;;;;;;4.68;2.33;;;;;;;16.24;87.37;100629.84;4995315;28;101337;-27
2023/07/23 05:05:17;;;;;;;5.97;1.75;;;;;;;16.20;87.66;100620.16;4996880;28;96712;-27
2023/07/23 05:07:42;;;;;;;5.70;2.17;;;;;;;16.17;87.77;100625.91;4997330;28;96710;-29
2023/07/23 05:10:08;;;;;;;3.05;1.80;;;;;;;16.14;88.25;100618.84;4997099;28;96757;-28
2023/07/23 05:12:34;;;;;;;4.03;2.00;;;;;;;16.13;87.98;100633.50;4996523;28;97843;-27
2023/07/23 05:15:10;;;;;;;4.28;2.05;;;;;;;16.09;87.97;100636.69;4996452;28;96625;-28
2023/07/23 05:17:36;;;;;;;4.25;2.10;;;;;;;16.04;88.10;100631.63;4995320;28;96763;-29
2023/07/23 05:20:05;;;;;;;5.72;2.55;;;;;;;16.03;88.14;100643.53;4995111;28;98808;-27
2023/07/23 05:22:30;;;;;;;3.00;1.73;;;;;;;15.97;88.82;100641.34;4995138;28;100847;-27
2023/07/23 05:24:55;;;;;;;4.20;2.00;;;;;;;15.99;89.07;100646.66;4996738;28;96512;-27
2023/07/23 05:27:21;;;;;;;4.78;2.47;;;;;;;15.91;89.34;100642.72;4996661;28;96992;-27
2023/07/23 05:29:46;;;;;;;5.65;2.00;;;;;;;15.93;90.59;100646.19;4996320;28;97974;-27
2023/07/23 05:32:11;;;;;;;3.22;1.83;;;;;;;15.88;90.51;100642.16;4995031;28;99361;-28
2023/07/23 05:34:37;;;;;;;4.43;1.90;;;;;;;15.83;91.32;100644.41;4996285;28;96585;-27
2023/07/23 05:37:02;;;;;;;3.70;1.67;;;;;;;15.80;91.42;100639.19;4996175;28;96881;-27
2023/07/23 05:39:28;;;;;;;7.70;2.10;;;;;;;15.80;91.02;100633.75;4994292;28;99279;-28
2023/07/23 05:41:53;;;;;;;4.03;1.98;;;;;;;15.77;91.55;100628.56;4996306;28;97333;-27
2023/07/23 05:44:18;;;;;;;5.30;2.03;;;;;;;15.76;92.18;100635.03;4996426;28;96661;-27
2023/07/23 05:46:44;;;;;;;4.60;2.20;;;;;;;15.78;91.62;100631.16;4996195;28;96786;-26
2023/07/23 05:49:09;;;;;;;4.05;1.75;;;;;;;15.80;92.99;100639.19;4995239;28;98921;-28
2023/07/23 05:51:34;;;;;;;4.10;1.95;;;;;;;15.77;91.98;100628.56;4995698;28;97862;-27
2023/07/23 05:54:00;;;;;;;4.05;2.00;;;;;;;15.73;93.61;100625.25;4995127;28;96542;-27
2023/07/23 05:56:26;;;;;;;3.70;2.00;;;;;;;15.70;93.72;100628.22;4996750;28;96787;-27
2023/07/23 05:58:52;;;;;;;6.28;1.85;;;;;;;15.69;94.49;100635.50;4977774;28;101111;-27
2023/07/23 06:01:17;;;;;;;5.20;2.13;;;;;;;15.66;94.02;100623.97;4995912;28;97780;-27
2023/07/23 06:03:42;;;;;;;5.55;2.70;;;;;;;15.68;94.34;100628.34;4995853;28;96622;-27
2023/07/23 06:06:08;;;;;;;4.15;2.22;;;;;;;15.76;93.86;100632.31;4995880;28;96863;-27
2023/07/23 06:08:33;;;;;;;5.28;2.30;;;;;;;15.76;93.80;100637.75;4995799;28;97415;-27
2023/07/23 06:10:58;;;;;;;4.28;2.03;;;;;;;15.70;93.81;100626.34;4995574;28;99263;-27
2023/07/23 06:13:24;;;;;;;6.95;2.00;;;;;;;15.64;94.51;100618.66;4995966;28;96775;-27
2023/07/23 06:15:49;;;;;;;4.82;2.58;;;;;;;15.63;93.83;100627.84;4995875;28;96826;-27
2023/07/23 06:18:15;;;;;;;5.45;2.20;;;;;;;15.64;93.93;100621.41;4995646;28;97678;-27
2023/07/23 06:20:40;;;;;;;7.25;2.13;;;;;;;15.64;94.24;100629.59;4995385;28;99276;-27
2023/07/23 06:23:05;;;;;;;3.80;2.13;;;;;;;15.59;94.14;100626.41;4995948;28;96721;-27
2023/07/23 06:25:31;;;;;;;6.13;2.30;;;;;;;15.55;94.38;100616.72;4995819;28;96849;-27
2023/07/23 06:27:56;;;;;;;4.28;2.05;;;;;;;15.57;94.55;100627.53;4993514;28;100772;-27
2023/07/23 06:30:21;;;;;;;3.83;1.90;;;;;;;15.52;95.21;100614.28;4995196;28;98759;-27
2023/07/23 06:32:47;;;;;;;5.18;2.05;;;;;;;15.55;95.72;100624.06;4995737;28;96924;-27
2023/07/23 06:35:12;;;;;;;4.15;2.00;;;;;;;15.51;95.44;100623.44;4995614;28;96835;-27
2023/07/23 06:37:41;;;;;;;5.78;2.22;;;;;;;15.51;95.82;100632.50;4995516;28;97145;-28
2023/07/23 06:40:07;;;;;;;4.00;1.92;;;;;;;15.54;96.05;100625.94;4993833;28;100787;-27
2023/07/23 06:42:32;;;;;;;3.35;1.52;;;;;;;15.59;95.18;100626.41;4995493;28;96571;-27
2023/07/23 06:44:58;;;;;;;3.17;1.52;;;;;;;15.61;96.20;100629.88;4996018;28;96767;-28
2023/07/23 06:47:23;;;;;;;4.68;2.08;;;;;;;15.63;96.19;100630.56;4994982;28;98882;-28
2023/07/23 06:49:48;;;;;;;6.88;2.53;;;;;;;15.63;94.81;100624.25;4994434;28;98034;-27
2023/07/23 06:52:14;;;;;;;6.38;1.75;;;;;;;15.59;95.49;100617.31;4994531;28;96595;-27
2023/07/23 06:54:42;;;;;;;5.30;1.83;;;;;;;15.58;95.56;100618.31;4995631;28;96969;-27
2023/07/23 06:57:08;;;;;;;3.75;1.58;;;;;;;15.53;95.58;100626.91;4993442;28;101327;-27
2023/07/23 06:59:34;;;;;;;2.83;1.55;;;;;;;15.54;94.84;100625.94;4993480;28;100985;-28
2023/07/23 07:01:59;;;;;;;2.97;1.65;;;;;;;15.54;95.76;100631.41;4995241;28;96734;-27
2023/07/23 07:04:24;;;;;;;3.45;1.80;;;;;;;15.51;95.66;100615.25;4994508;28;96937;-27
2023/07/23 07:06:50;;;;;;;4.10;1.50;;;;;;;15.61;95.09;100624.41;4994898;28;97341;-27
2023/07/23 07:09:15;;;;;;;3.42;1.40;;;;;;;15.63;95.28;100635.16;4995478;28;97188;-27
2023/07/23 07:11:40;;;;;;;3.28;1.73;;;;;;;15.61;95.25;100618.94;4995390;28;96587;-27
2023/07/23 07:14:06;;;;;;;3.83;1.75;;;;;;;15.66;94.85;100622.13;4995161;28;96813;-27
2023/07/23 07:16:31;;;;;;;4.15;1.92;;;;;;;15.70;94.09;100623.63;4994443;28;97928;-27
2023/07/23 07:18:56;;;;;;;4.57;2.03;;;;;;;15.73;93.71;100618.88;4994826;28;97174;-27
2023/07/23 07:21:22;;;;;;;2.17;1.38;;;;;;;15.78;93.84;100622.06;4995159;28;96535;-27
2023/07/23 07:23:47;;;;;;;2.33;1.45;;;;;;;15.76;92.77;100614.03;4994768;28;96827;-28
2023/07/23 07:26:12;;;;;;;4.53;2.17;;;;;;;15.77;92.51;100610.28;4994415;28;99346;-27
2023/07/23 07:28:38;;;;;;;6.28;2.28;;;;;;;15.85;92.36;100623.28;4994765;28;97785;-28
2023/07/23 07:31:03;;;;;;;5.13;2.00;;;;;;;15.86;92.80;100616.84;4994937;28;96672;-27
2023/07/23 07:33:29;;;;;;;3.05;1.60;;;;;;;15.94;92.54;100614.28;4995033;28;96816;-27
2023/07/23 07:35:56;;;;;;;2.75;1.58;;;;;;;15.97;92.79;100619.50;4992989;28;101575;-27
2023/07/23 07:38:23;;;;;;;4.80;2.13;;;;;;;15.96;92.04;100605.97;4992981;28;100491;-27
2023/07/23 07:40:49;;;;;;;3.95;2.00;;;;;;;15.96;92.43;100606.81;4992798;28;96652;-27
2023/07/23 07:43:15;;;;;;;3.90;2.03;;;;;;;16.01;91.86;100606.41;4993270;28;96983;-27
2023/07/23 07:45:40;;;;;;;3.85;1.52;;;;;;;15.95;92.77;100605.09;4994238;28;98938;-27
2023/07/23 07:48:06;;;;;;;6.70;2.00;;;;;;;15.98;93.18;100607.56;4994141;28;97326;-26
2023/07/23 07:50:31;;;;;;;3.47;1.75;;;;;;;16.02;93.08;100613.63;4994395;28;96834;-27
2023/07/23 07:52:56;;;;;;;4.10;2.05;;;;;;;15.98;94.01;100615.75;4994644;28;96855;-27
2023/07/23 07:55:22;;;;;;;2.72;1.50;;;;;;;15.99;93.36;100603.81;4994110;28;98997;-27
2023/07/23 07:57:48;;;;;;;2.80;1.55;;;;;;;16.00;92.95;100602.81;4994316;28;97758;-27
2023/07/23 08:00:14;;;;;;;3.45;1.95;;;;;;;16.08;93.08;100615.78;4994596;28;96652;-27
2023/07/23 08:02:39;;;;;;;5.13;2.03;;;;;;;16.11;93.11;100610.94;4992898;28;96825;-27
2023/07/23 08:05:06;;;;;;;3.95;1.88;;;;;;;16.10;93.12;100611.94;4993528;28;99625;-27
2023/07/23 08:07:32;;;;;;;2.65;1.65;;;;;;;16.12;93.33;100604.47;4992714;28;101008;-27
2023/07/23 08:09:59;;;;;;;4.28;1.70;;;;;;;16.12;93.17;100606.34;4994612;28;96490;-26
2023/07/23 08:12:25;;;;;;;4.85;1.95;;;;;;;16.13;93.02;100613.53;4993016;28;96807;-28
2023/07/23 08:14:53;;;;;;;4.25;2.00;;;;;;;16.13;93.44;100611.66;4994053;28;97454;-27
2023/07/23 08:17:20;;;;;;;4.03;2.00;;;;;;;16.18;93.04;100611.25;4994073;28;101146;-27
2023/07/23 08:19:45;;;;;;;3.47;1.67;;;;;;;16.23;93.04;100605.38;4996389;28;96702;-27
2023/07/23 08:22:11;;;;;;;3.40;1.90;;;;;;;16.23;93.08;100608.09;4998169;28;96862;-27
2023/07/23 08:24:37;;;;;;;3.90;2.03;;;;;;;16.18;93.36;100611.25;4997172;28;99243;-27
2023/07/23 08:27:03;;;;;;;3.30;1.83;;;;;;;16.18;93.58;100615.84;4997519;28;97709;-27
2023/07/23 08:29:33;;;;;;;3.30;1.88;;;;;;;16.25;93.20;100617.88;4995534;28;96652;-26
2023/07/23 08:31:59;;;;;;;3.33;2.03;;;;;;;16.27;93.60;100606.81;4995979;28;96880;-27
2023/07/23 08:34:26;;;;;;;3.33;1.95;;;;;;;16.31;92.60;100616.50;4996083;28;100789;-27
2023/07/23 08:36:51;;;;;;;3.53;1.88;;;;;;;16.35;92.64;100612.47;4995632;28;100051;-27
2023/07/23 08:39:17;;;;;;;6.80;2.28;;;;;;;16.37;93.65;100607.72;4997458;28;96503;-26
2023/07/23 08:42:07;;;;;;;3.67;1.83;;;;;;;16.39;93.31;100615.78;4995867;28;96907;-27
2023/07/23 08:44:59;;;;;;;3.33;1.85;;;;;;;16.43;93.58;100611.78;4997274;28;97508;-28
2023/07/23 08:47:26;;;;;;;4.38;2.03;;;;;;;16.42;92.96;100613.66;4997604;28;97836;-27
2023/07/23 08:49:53;;;;;;;3.88;2.00;;;;;;;16.46;93.77;100614.25;4995482;28;97002;-27
2023/07/23 08:52:21;;;;;;;3.10;1.85;;;;;;;16.48;93.45;100598.56;4995565;28;96842;-27
2023/07/23 08:54:47;;;;;;;3.15;2.13;;;;;;;16.50;93.44;100615.69;4994879;28;101242;-27
2023/07/23 08:57:12;;;;;;;6.43;2.67;;;;;;;16.51;92.64;100611.94;4996623;28;98308;-26
2023/07/23 08:59:39;;;;;;;4.88;2.33;;;;;;;16.52;93.56;100605.50;4997310;28;96486;-28
2023/07/23 09:02:09;;;;;;;6.18;2.38;;;;;;;16.56;92.94;100607.81;4995650;28;96840;-27
2023/07/23 09:04:35;;;;;;;3.63;2.25;;;;;;;16.56;93.26;100607.81;4995233;28;101231;-29
2023/07/23 09:07:01;;;;;;;3.90;1.90;;;;;;;16.58;93.44;100601.34;4996845;28;98006;-27
2023/07/23 09:09:26;;;;;;;3.35;1.88;;;;;;;16.60;93.64;100602.06;4995432;28;96590;-28
2023/07/23 09:11:52;;;;;;;3.13;1.75;;;;;;;16.60;94.08;100616.59;4997505;28;96790;-27
2023/07/23 09:14:18;;;;;;;3.67;1.92;;;;;;;16.60;94.76;100613.00;4995113;28;101108;-27
2023/07/23 09:16:45;;;;;;;4.50;2.10;;;;;;;16.63;94.37;100615.44;4996697;28;97752;-27
2023/07/23 09:19:13;;;;;;;2.90;1.70;;;;;;;16.63;96.05;100620.91;4994996;28;96634;-27
2023/07/23 09:21:44;;;;;;;3.55;2.00;;;;;;;16.58;96.29;100639.63;4995380;28;96799;-32
2023/07/23 09:24:15;;;;;;;4.22;1.80;;;;;;;16.50;96.40;100638.44;4995341;28;100663;-27
2023/07/23 09:26:41;;;;;;;2.93;1.77;;;;;;;16.50;96.81;100632.97;4994881;28;100983;-27
2023/07/23 09:29:09;;;;;;;3.03;1.60;;;;;;;16.49;96.63;100622.16;4995006;28;96588;-27
2023/07/23 09:31:36;;;;;;;2.15;1.23;;;;;;;16.45;98.41;100632.53;4995184;28;96843;-28
2023/07/23 09:34:02;;;;;;;3.22;1.83;;;;;;;16.50;98.29;100637.56;4994729;28;100880;-27
2023/07/23 09:36:29;;;;;;;4.30;1.88;;;;;;;16.48;97.60;100637.69;4994923;28;101171;-27
2023/07/23 09:39:05;;;;;;;2.92;1.67;;;;;;;16.42;98.24;100632.81;4994990;28;96639;-27
2023/07/23 09:41:37;;;;;;;3.83;1.88;;;;;;;16.40;98.74;100636.66;4995096;28;96799;-27
2023/07/23 09:44:07;;;;;;;3.28;1.52;;;;;;;16.42;99.13;100638.28;4994236;28;101655;-28
2023/07/23 09:46:33;;;;;;;3.95;1.85;;;;;;;16.42;98.91;100624.59;4994657;28;101036;-27
2023/07/23 09:48:59;;;;;;;2.83;1.75;;;;;;;16.55;99.18;100635.28;4995640;28;96858;-26
2023/07/23 09:51:25;;;;;;;3.33;1.60;;;;;;;16.61;98.87;100645.66;4994874;28;96896;-27
2023/07/23 09:53:51;;;;;;;3.40;2.05;;;;;;;16.61;98.44;100637.44;4996012;28;98394;-27
2023/07/23 09:56:18;;;;;;;4.03;2.00;;;;;;;16.72;99.24;100631.88;4994620;28;101119;-27
2023/07/23 09:58:48;;;;;;;3.25;2.15;;;;;;;16.81;98.15;100637.56;4996200;28;96957;-27
2023/07/23 10:01:18;;;;;;;2.00;1.52;;;;;;;16.86;99.11;100643.47;4995212;28;96919;-29
2023/07/23 10:03:45;;;;;;;4.47;2.20;;;;;;;16.98;99.53;100639.63;4994323;28;100770;-27
2023/07/23 10:06:12;;;;;;;3.70;2.03;;;;;;;17.05;98.15;100638.03;4994345;28;100921;-27
2023/07/23 10:08:48;;;;;;;4.18;2.38;;;;;;;17.11;97.36;100642.06;4994254;28;96576;-27
2023/07/23 10:11:15;;;;;;;3.95;2.05;;;;;;;17.15;97.69;100632.59;4994671;28;96866;-27
2023/07/23 10:13:42;;;;;;;3.58;2.08;;;;;;;17.20;96.67;100630.28;4994233;28;101017;-29
2023/07/23 10:16:12;;;;;;;3.13;1.98;;;;;;;17.18;96.54;100632.28;4994134;28;101164;-27
2023/07/23 10:18:40;;;;;;;4.15;2.40;;;;;;;17.19;96.80;100631.28;4994413;28;96726;-27
2023/07/23 10:21:10;;;;;;;4.07;2.30;;;;;;;17.22;96.75;100633.75;4994451;28;96830;-29
2023/07/23 10:23:38;;;;;;;3.88;2.15;;;;;;;17.30;98.00;100636.63;4993991;28;101388;-26
2023/07/23 10:26:22;;;;;;;5.05;2.30;;;;;;;17.31;97.38;100643.84;4994392;28;100871;-27
2023/07/23 10:28:55;;;;;;;4.15;2.03;;;;;;;17.26;97.63;100642.53;4994300;28;96621;-27
2023/07/23 10:31:22;;;;;;;3.33;1.80;;;;;;;17.19;97.99;100634.03;4994437;28;96786;-28
2023/07/23 10:33:50;;;;;;;4.50;2.13;;;;;;;17.20;98.39;100639.34;4993425;28;101010;-27
2023/07/23 10:36:15;;;;;;;4.07;2.35;;;;;;;17.27;98.05;100645.13;4995353;28;97789;-26
2023/07/23 10:38:41;;;;;;;6.05;2.20;;;;;;;17.26;98.28;100640.66;4995216;28;96610;-28
2023/07/23 10:41:07;;;;;;;3.65;1.98;;;;;;;17.31;97.96;100649.31;4994799;28;96912;-27
2023/07/23 10:43:48;;;;;;;3.83;2.25;;;;;;;17.35;97.58;100642.56;4995216;28;96854;-27
2023/07/23 10:46:22;;;;;;;4.33;2.47;;;;;;;17.35;97.03;100634.34;4995016;28;99621;-27
2023/07/23 10:48:55;;;;;;;3.72;2.13;;;;;;;17.45;96.89;100633.44;4993679;28;96707;-27
2023/07/23 10:51:23;;;;;;;4.35;2.13;;;;;;;17.54;97.58;100625.25;4994204;28;96814;-26
2023/07/23 10:54:08;;;;;;;3.85;2.05;;;;;;;17.66;96.79;100647.00;4993523;28;99909;-27
2023/07/23 10:56:35;;;;;;;3.63;1.85;;;;;;;17.68;96.26;100629.41;4994984;28;99659;-27
2023/07/23 10:59:04;;;;;;;6.20;1.90;;;;;;;17.74;95.20;100642.53;4993294;28;96843;-27
2023/07/23 11:01:35;;;;;;;4.30;2.08;;;;;;;17.70;95.29;100627.38;4993758;28;96986;-27
2023/07/23 11:04:07;;;;;;;3.85;2.38;;;;;;;17.77;95.77;100635.88;4993494;28;100749;-27
2023/07/23 11:06:33;;;;;;;4.82;2.30;;;;;;;17.86;95.35;100653.38;4993536;28;100768;-27
2023/07/23 11:09:10;;;;;;;4.90;2.20;;;;;;;17.80;95.38;100628.28;4995212;28;96591;-27
2023/07/23 11:11:42;;;;;;;2.90;1.77;;;;;;;17.93;96.00;100646.28;4995507;28;96552;-26
2023/07/23 11:14:27;;;;;;;4.15;1.77;;;;;;;17.95;95.09;100650.59;4994577;28;97951;-27
2023/07/23 11:16:55;;;;;;;3.92;1.88;;;;;;;17.99;94.78;100646.53;4993772;28;100744;-27
2023/07/23 11:19:21;;;;;;;6.22;2.17;;;;;;;18.02;94.48;100649.00;4993638;28;97177;-27
2023/07/23 11:21:56;;;;;;;3.53;1.80;;;;;;;18.06;94.47;100641.34;4995117;28;96798;-26